sensor_id;sensor_type;location;lat;lon;timestamp;P1;durP1;ratioP1;P2;durP2;ratioP2
20557;SDS011;10437;48.156;11.530;2023-12-20T00:02:05;3.27;;;1.80;;
20557;SDS011;10437;48.156;11.530;2023-12-20T00:04:33;2.73;;;1.53;;
20557;SDS011;10437;48.156;11.530;2023-12-20T00:07:00;4.63;;;1.90;;
20557;SDS011;10437;48.156;11.530;2023-12-20T00:09:27;2.70;;;1.60;;
20557;SDS011;10437;48.156;11.530;2023-12-20T00:11:55;4.33;;;2.13;;
20557;SDS011;10437;48.156;11.530;2023-12-20T00:14:22;2.87;;;1.80;;
20557;SDS011;10437;48.156;11.530;2023-12-20T00:16:50;2.73;;;1.60;;
20557;SDS011;10437;48.156;11.530;2023-12-20T00:19:17;2.90;;;1.53;;
20557;SDS011;10437;48.156;11.530;2023-12-20T00:21:45;2.47;;;1.70;;
20557;SDS011;10437;48.156;11.530;2023-12-20T00:24:12;3.03;;;1.83;;
20557;SDS011;10437;48.156;11.530;2023-12-20T00:26:39;2.43;;;1.40;;
20557;SDS011;10437;48.156;11.530;2023-12-20T00:29:06;2.70;;;1.60;;
20557;SDS011;10437;48.156;11.530;2023-12-20T00:31:33;2.40;;;1.33;;
20557;SDS011;10437;48.156;11.530;2023-12-20T00:34:02;3.37;;;1.63;;
20557;SDS011;10437;48.156;11.530;2023-12-20T00:36:29;2.60;;;1.70;;
20557;SDS011;10437;48.156;11.530;2023-12-20T00:38:56;2.13;;;1.30;;
20557;SDS011;10437;48.156;11.530;2023-12-20T00:41:24;2.60;;;1.43;;
20557;SDS011;10437;48.156;11.530;2023-12-20T00:43:51;2.53;;;1.47;;
20557;SDS011;10437;48.156;11.530;2023-12-20T00:46:18;3.47;;;1.70;;
20557;SDS011;10437;48.156;11.530;2023-12-20T00:48:45;3.20;;;1.20;;
20557;SDS011;10437;48.156;11.530;2023-12-20T00:51:14;2.07;;;1.20;;
20557;SDS011;10437;48.156;11.530;2023-12-20T00:53:41;2.03;;;1.33;;
20557;SDS011;10437;48.156;11.530;2023-12-20T00:56:08;4.50;;;1.27;;
20557;SDS011;10437;48.156;11.530;2023-12-20T00:58:35;1.80;;;1.20;;
20557;SDS011;10437;48.156;11.530;2023-12-20T01:01:03;2.17;;;1.33;;
20557;SDS011;10437;48.156;11.530;2023-12-20T01:03:30;2.47;;;1.47;;
20557;SDS011;10437;48.156;11.530;2023-12-20T01:05:57;4.07;;;1.53;;
20557;SDS011;10437;48.156;11.530;2023-12-20T01:08:25;2.20;;;1.40;;
20557;SDS011;10437;48.156;11.530;2023-12-20T01:10:52;3.17;;;1.40;;
20557;SDS011;10437;48.156;11.530;2023-12-20T01:13:20;2.27;;;1.20;;
20557;SDS011;10437;48.156;11.530;2023-12-20T01:15:47;1.90;;;1.20;;
20557;SDS011;10437;48.156;11.530;2023-12-20T01:18:14;4.10;;;1.27;;
20557;SDS011;10437;48.156;11.530;2023-12-20T01:20:41;1.70;;;1.30;;
20557;SDS011;10437;48.156;11.530;2023-12-20T01:23:08;2.13;;;1.20;;
20557;SDS011;10437;48.156;11.530;2023-12-20T01:25:37;2.27;;;1.30;;
20557;SDS011;10437;48.156;11.530;2023-12-20T01:28:05;1.83;;;1.10;;
20557;SDS011;10437;48.156;11.530;2023-12-20T01:30:32;2.13;;;1.17;;
20557;SDS011;10437;48.156;11.530;2023-12-20T01:32:59;1.97;;;1.20;;
20557;SDS011;10437;48.156;11.530;2023-12-20T01:35:27;1.60;;;1.20;;
20557;SDS011;10437;48.156;11.530;2023-12-20T01:37:54;2.33;;;1.30;;
20557;SDS011;10437;48.156;11.530;2023-12-20T01:40:22;1.63;;;0.97;;
20557;SDS011;10437;48.156;11.530;2023-12-20T01:42:58;2.10;;;1.20;;
20557;SDS011;10437;48.156;11.530;2023-12-20T01:45:26;1.50;;;0.87;;
20557;SDS011;10437;48.156;11.530;2023-12-20T01:47:53;2.60;;;1.00;;
20557;SDS011;10437;48.156;11.530;2023-12-20T01:50:22;2.10;;;1.20;;
20557;SDS011;10437;48.156;11.530;2023-12-20T01:52:49;2.73;;;1.03;;
20557;SDS011;10437;48.156;11.530;2023-12-20T01:55:17;1.40;;;0.80;;
20557;SDS011;10437;48.156;11.530;2023-12-20T01:57:44;2.07;;;1.00;;
20557;SDS011;10437;48.156;11.530;2023-12-20T02:00:14;2.07;;;1.00;;
20557;SDS011;10437;48.156;11.530;2023-12-20T02:02:41;2.10;;;1.00;;
20557;SDS011;10437;48.156;11.530;2023-12-20T02:05:10;1.63;;;0.90;;
20557;SDS011;10437;48.156;11.530;2023-12-20T02:07:37;2.00;;;0.90;;
20557;SDS011;10437;48.156;11.530;2023-12-20T02:10:05;0.97;;;0.80;;
20557;SDS011;10437;48.156;11.530;2023-12-20T02:12:32;2.30;;;1.03;;
20557;SDS011;10437;48.156;11.530;2023-12-20T02:15:00;1.23;;;0.80;;
20557;SDS011;10437;48.156;11.530;2023-12-20T02:17:28;1.30;;;0.83;;
20557;SDS011;10437;48.156;11.530;2023-12-20T02:19:57;0.80;;;0.60;;
20557;SDS011;10437;48.156;11.530;2023-12-20T02:22:26;1.63;;;0.90;;
20557;SDS011;10437;48.156;11.530;2023-12-20T02:24:53;2.50;;;1.10;;
20557;SDS011;10437;48.156;11.530;2023-12-20T02:27:20;1.40;;;0.80;;
20557;SDS011;10437;48.156;11.530;2023-12-20T02:29:49;1.40;;;0.80;;
20557;SDS011;10437;48.156;11.530;2023-12-20T02:32:17;1.30;;;0.60;;
20557;SDS011;10437;48.156;11.530;2023-12-20T02:34:45;1.10;;;0.70;;
20557;SDS011;10437;48.156;11.530;2023-12-20T02:37:13;1.80;;;0.60;;
20557;SDS011;10437;48.156;11.530;2023-12-20T02:39:42;1.50;;;0.70;;
20557;SDS011;10437;48.156;11.530;2023-12-20T02:42:09;2.20;;;0.60;;
20557;SDS011;10437;48.156;11.530;2023-12-20T02:44:36;0.87;;;0.43;;
20557;SDS011;10437;48.156;11.530;2023-12-20T02:47:03;1.30;;;0.60;;
20557;SDS011;10437;48.156;11.530;2023-12-20T02:49:31;0.90;;;0.30;;
20557;SDS011;10437;48.156;11.530;2023-12-20T02:51:58;0.70;;;0.50;;
20557;SDS011;10437;48.156;11.530;2023-12-20T02:54:25;0.47;;;0.40;;
20557;SDS011;10437;48.156;11.530;2023-12-20T02:56:53;0.70;;;0.40;;
20557;SDS011;10437;48.156;11.530;2023-12-20T02:59:21;0.93;;;0.60;;
20557;SDS011;10437;48.156;11.530;2023-12-20T03:01:48;0.40;;;0.40;;
20557;SDS011;10437;48.156;11.530;2023-12-20T03:04:15;0.63;;;0.40;;
20557;SDS011;10437;48.156;11.530;2023-12-20T03:06:42;0.50;;;0.50;;
20557;SDS011;10437;48.156;11.530;2023-12-20T03:09:09;1.07;;;0.53;;
20557;SDS011;10437;48.156;11.530;2023-12-20T03:11:37;1.10;;;0.50;;
20557;SDS011;10437;48.156;11.530;2023-12-20T03:14:05;0.50;;;0.40;;
20557;SDS011;10437;48.156;11.530;2023-12-20T03:16:32;1.13;;;0.53;;
20557;SDS011;10437;48.156;11.530;2023-12-20T03:19:00;0.60;;;0.50;;
20557;SDS011;10437;48.156;11.530;2023-12-20T03:21:27;1.27;;;0.57;;
20557;SDS011;10437;48.156;11.530;2023-12-20T03:23:54;0.60;;;0.60;;
20557;SDS011;10437;48.156;11.530;2023-12-20T03:26:21;0.53;;;0.43;;
20557;SDS011;10437;48.156;11.530;2023-12-20T03:28:48;0.80;;;0.53;;
20557;SDS011;10437;48.156;11.530;2023-12-20T03:31:17;0.53;;;0.43;;
20557;SDS011;10437;48.156;11.530;2023-12-20T03:33:44;0.53;;;0.37;;
20557;SDS011;10437;48.156;11.530;2023-12-20T03:36:12;1.33;;;0.60;;
20557;SDS011;10437;48.156;11.530;2023-12-20T03:38:39;0.63;;;0.40;;
20557;SDS011;10437;48.156;11.530;2023-12-20T03:41:07;2.20;;;0.40;;
20557;SDS011;10437;48.156;11.530;2023-12-20T03:43:34;2.17;;;0.43;;
20557;SDS011;10437;48.156;11.530;2023-12-20T03:46:01;0.80;;;0.50;;
20557;SDS011;10437;48.156;11.530;2023-12-20T03:48:30;0.67;;;0.53;;
20557;SDS011;10437;48.156;11.530;2023-12-20T03:50:57;3.07;;;0.57;;
20557;SDS011;10437;48.156;11.530;2023-12-20T03:53:24;1.03;;;0.50;;
20557;SDS011;10437;48.156;11.530;2023-12-20T03:55:51;1.00;;;0.40;;
20557;SDS011;10437;48.156;11.530;2023-12-20T03:58:18;0.80;;;0.50;;
20557;SDS011;10437;48.156;11.530;2023-12-20T04:00:46;2.23;;;0.70;;
20557;SDS011;10437;48.156;11.530;2023-12-20T04:03:13;0.70;;;0.50;;
20557;SDS011;10437;48.156;11.530;2023-12-20T04:05:41;1.90;;;0.50;;
20557;SDS011;10437;48.156;11.530;2023-12-20T04:08:09;1.40;;;0.50;;
20557;SDS011;10437;48.156;11.530;2023-12-20T04:10:36;1.07;;;0.50;;
20557;SDS011;10437;48.156;11.530;2023-12-20T04:13:03;0.73;;;0.50;;
20557;SDS011;10437;48.156;11.530;2023-12-20T04:15:30;0.97;;;0.60;;
20557;SDS011;10437;48.156;11.530;2023-12-20T04:17:58;1.07;;;0.67;;
20557;SDS011;10437;48.156;11.530;2023-12-20T04:20:25;2.60;;;0.60;;
20557;SDS011;10437;48.156;11.530;2023-12-20T04:22:53;0.70;;;0.50;;
20557;SDS011;10437;48.156;11.530;2023-12-20T04:25:20;0.40;;;0.30;;
20557;SDS011;10437;48.156;11.530;2023-12-20T04:27:47;1.33;;;0.70;;
20557;SDS011;10437;48.156;11.530;2023-12-20T04:30:15;1.90;;;0.60;;
20557;SDS011;10437;48.156;11.530;2023-12-20T04:32:42;1.43;;;0.73;;
20557;SDS011;10437;48.156;11.530;2023-12-20T04:35:09;1.23;;;0.60;;
20557;SDS011;10437;48.156;11.530;2023-12-20T04:37:36;1.00;;;0.77;;
20557;SDS011;10437;48.156;11.530;2023-12-20T04:40:06;1.10;;;0.70;;
20557;SDS011;10437;48.156;11.530;2023-12-20T04:42:33;1.07;;;0.80;;
20557;SDS011;10437;48.156;11.530;2023-12-20T04:45:00;1.00;;;0.77;;
20557;SDS011;10437;48.156;11.530;2023-12-20T04:47:28;1.27;;;0.90;;
20557;SDS011;10437;48.156;11.530;2023-12-20T04:49:55;1.60;;;0.87;;
20557;SDS011;10437;48.156;11.530;2023-12-20T04:52:22;2.30;;;1.00;;
20557;SDS011;10437;48.156;11.530;2023-12-20T04:54:49;1.53;;;1.00;;
20557;SDS011;10437;48.156;11.530;2023-12-20T04:57:18;1.67;;;1.20;;
20557;SDS011;10437;48.156;11.530;2023-12-20T04:59:45;2.37;;;1.10;;
20557;SDS011;10437;48.156;11.530;2023-12-20T05:02:12;2.27;;;1.20;;
20557;SDS011;10437;48.156;11.530;2023-12-20T05:04:38;2.20;;;1.23;;
20557;SDS011;10437;48.156;11.530;2023-12-20T05:07:06;2.40;;;1.30;;
20557;SDS011;10437;48.156;11.530;2023-12-20T05:09:33;2.37;;;1.37;;
20557;SDS011;10437;48.156;11.530;2023-12-20T05:12:01;3.33;;;1.30;;
20557;SDS011;10437;48.156;11.530;2023-12-20T05:14:28;3.90;;;1.47;;
20557;SDS011;10437;48.156;11.530;2023-12-20T05:16:55;4.30;;;1.40;;
20557;SDS011;10437;48.156;11.530;2023-12-20T05:19:23;3.33;;;1.50;;
20557;SDS011;10437;48.156;11.530;2023-12-20T05:21:51;3.13;;;1.60;;
20557;SDS011;10437;48.156;11.530;2023-12-20T05:24:18;2.87;;;1.50;;
20557;SDS011;10437;48.156;11.530;2023-12-20T05:26:46;2.57;;;1.50;;
20557;SDS011;10437;48.156;11.530;2023-12-20T05:29:13;2.53;;;1.40;;
20557;SDS011;10437;48.156;11.530;2023-12-20T05:31:42;2.50;;;1.40;;
20557;SDS011;10437;48.156;11.530;2023-12-20T05:34:09;3.00;;;1.60;;
20557;SDS011;10437;48.156;11.530;2023-12-20T05:36:37;3.80;;;1.90;;
20557;SDS011;10437;48.156;11.530;2023-12-20T05:39:04;2.60;;;1.57;;
20557;SDS011;10437;48.156;11.530;2023-12-20T05:41:32;3.27;;;1.60;;
20557;SDS011;10437;48.156;11.530;2023-12-20T05:44:00;1.97;;;1.30;;
20557;SDS011;10437;48.156;11.530;2023-12-20T05:46:27;2.57;;;1.50;;
20557;SDS011;10437;48.156;11.530;2023-12-20T05:48:55;2.40;;;1.40;;
20557;SDS011;10437;48.156;11.530;2023-12-20T05:51:23;2.27;;;1.57;;
20557;SDS011;10437;48.156;11.530;2023-12-20T05:53:50;2.40;;;1.40;;
20557;SDS011;10437;48.156;11.530;2023-12-20T05:56:17;3.13;;;1.30;;
20557;SDS011;10437;48.156;11.530;2023-12-20T05:58:44;3.83;;;1.30;;
20557;SDS011;10437;48.156;11.530;2023-12-20T06:01:11;2.50;;;1.40;;
20557;SDS011;10437;48.156;11.530;2023-12-20T06:03:40;2.70;;;1.53;;
20557;SDS011;10437;48.156;11.530;2023-12-20T06:06:09;2.27;;;1.23;;
20557;SDS011;10437;48.156;11.530;2023-12-20T06:08:36;2.97;;;1.30;;
20557;SDS011;10437;48.156;11.530;2023-12-20T06:11:03;2.33;;;1.20;;
20557;SDS011;10437;48.156;11.530;2023-12-20T06:13:30;2.47;;;1.53;;
20557;SDS011;10437;48.156;11.530;2023-12-20T06:15:58;2.33;;;1.50;;
20557;SDS011;10437;48.156;11.530;2023-12-20T06:18:25;2.30;;;1.43;;
20557;SDS011;10437;48.156;11.530;2023-12-20T06:20:52;1.77;;;1.30;;
20557;SDS011;10437;48.156;11.530;2023-12-20T06:23:21;3.07;;;1.47;;
20557;SDS011;10437;48.156;11.530;2023-12-20T06:25:48;2.37;;;1.40;;
20557;SDS011;10437;48.156;11.530;2023-12-20T06:28:15;2.43;;;1.47;;
20557;SDS011;10437;48.156;11.530;2023-12-20T06:30:42;2.40;;;1.47;;
20557;SDS011;10437;48.156;11.530;2023-12-20T06:33:11;2.37;;;1.40;;
20557;SDS011;10437;48.156;11.530;2023-12-20T06:35:38;2.50;;;1.50;;
20557;SDS011;10437;48.156;11.530;2023-12-20T06:38:05;3.30;;;1.60;;
20557;SDS011;10437;48.156;11.530;2023-12-20T06:40:35;2.90;;;1.40;;
20557;SDS011;10437;48.156;11.530;2023-12-20T06:43:03;1.70;;;1.20;;
20557;SDS011;10437;48.156;11.530;2023-12-20T06:45:31;3.30;;;1.73;;
20557;SDS011;10437;48.156;11.530;2023-12-20T06:47:59;3.10;;;1.40;;
20557;SDS011;10437;48.156;11.530;2023-12-20T06:50:26;2.27;;;1.47;;
20557;SDS011;10437;48.156;11.530;2023-12-20T06:52:54;2.50;;;1.43;;
20557;SDS011;10437;48.156;11.530;2023-12-20T06:55:21;2.93;;;1.63;;
20557;SDS011;10437;48.156;11.530;2023-12-20T06:57:49;3.37;;;1.63;;
20557;SDS011;10437;48.156;11.530;2023-12-20T07:00:17;2.23;;;1.30;;
20557;SDS011;10437;48.156;11.530;2023-12-20T07:02:45;3.70;;;1.60;;
20557;SDS011;10437;48.156;11.530;2023-12-20T07:05:15;2.03;;;1.23;;
20557;SDS011;10437;48.156;11.530;2023-12-20T07:07:44;1.97;;;1.17;;
20557;SDS011;10437;48.156;11.530;2023-12-20T07:10:12;1.80;;;1.10;;
20557;SDS011;10437;48.156;11.530;2023-12-20T07:12:39;1.73;;;1.10;;
20557;SDS011;10437;48.156;11.530;2023-12-20T07:15:08;2.00;;;1.20;;
20557;SDS011;10437;48.156;11.530;2023-12-20T07:17:35;3.37;;;1.20;;
20557;SDS011;10437;48.156;11.530;2023-12-20T07:20:03;2.00;;;1.03;;
20557;SDS011;10437;48.156;11.530;2023-12-20T07:22:31;4.20;;;0.90;;
20557;SDS011;10437;48.156;11.530;2023-12-20T07:24:59;1.17;;;0.90;;
20557;SDS011;10437;48.156;11.530;2023-12-20T07:27:26;1.37;;;1.00;;
20557;SDS011;10437;48.156;11.530;2023-12-20T07:29:53;1.20;;;0.80;;
20557;SDS011;10437;48.156;11.530;2023-12-20T07:32:21;1.97;;;0.77;;
20557;SDS011;10437;48.156;11.530;2023-12-20T07:34:48;2.87;;;0.80;;
20557;SDS011;10437;48.156;11.530;2023-12-20T07:37:15;1.33;;;0.83;;
20557;SDS011;10437;48.156;11.530;2023-12-20T07:39:43;1.27;;;0.90;;
20557;SDS011;10437;48.156;11.530;2023-12-20T07:42:10;1.17;;;1.00;;
20557;SDS011;10437;48.156;11.530;2023-12-20T07:44:37;2.57;;;0.80;;
20557;SDS011;10437;48.156;11.530;2023-12-20T07:47:04;1.83;;;0.87;;
20557;SDS011;10437;48.156;11.530;2023-12-20T07:49:33;2.07;;;0.67;;
20557;SDS011;10437;48.156;11.530;2023-12-20T07:52:00;2.50;;;0.73;;
20557;SDS011;10437;48.156;11.530;2023-12-20T07:54:27;1.67;;;0.63;;
20557;SDS011;10437;48.156;11.530;2023-12-20T07:56:55;2.37;;;1.13;;
20557;SDS011;10437;48.156;11.530;2023-12-20T07:59:23;1.50;;;0.73;;
20557;SDS011;10437;48.156;11.530;2023-12-20T08:01:50;1.27;;;0.60;;
20557;SDS011;10437;48.156;11.530;2023-12-20T08:04:17;1.07;;;0.63;;
20557;SDS011;10437;48.156;11.530;2023-12-20T08:06:46;1.37;;;0.73;;
20557;SDS011;10437;48.156;11.530;2023-12-20T08:09:12;0.93;;;0.53;;
20557;SDS011;10437;48.156;11.530;2023-12-20T08:11:40;0.90;;;0.67;;
20557;SDS011;10437;48.156;11.530;2023-12-20T08:14:11;1.33;;;0.53;;
20557;SDS011;10437;48.156;11.530;2023-12-20T08:16:38;0.67;;;0.40;;
20557;SDS011;10437;48.156;11.530;2023-12-20T08:19:05;0.80;;;0.50;;
20557;SDS011;10437;48.156;11.530;2023-12-20T08:21:32;0.77;;;0.60;;
20557;SDS011;10437;48.156;11.530;2023-12-20T08:24:01;1.77;;;0.60;;
20557;SDS011;10437;48.156;11.530;2023-12-20T08:26:28;0.90;;;0.60;;
20557;SDS011;10437;48.156;11.530;2023-12-20T08:28:55;1.77;;;0.50;;
20557;SDS011;10437;48.156;11.530;2023-12-20T08:31:22;1.07;;;0.70;;
20557;SDS011;10437;48.156;11.530;2023-12-20T08:33:51;1.53;;;0.53;;
20557;SDS011;10437;48.156;11.530;2023-12-20T08:36:18;2.03;;;0.60;;
20557;SDS011;10437;48.156;11.530;2023-12-20T08:38:46;1.07;;;0.50;;
20557;SDS011;10437;48.156;11.530;2023-12-20T08:41:15;6.63;;;0.60;;
20557;SDS011;10437;48.156;11.530;2023-12-20T08:43:42;0.40;;;0.40;;
20557;SDS011;10437;48.156;11.530;2023-12-20T08:46:09;0.97;;;0.70;;
20557;SDS011;10437;48.156;11.530;2023-12-20T08:48:37;0.77;;;0.50;;
20557;SDS011;10437;48.156;11.530;2023-12-20T08:51:04;0.80;;;0.50;;
20557;SDS011;10437;48.156;11.530;2023-12-20T08:53:33;8.53;;;0.67;;
20557;SDS011;10437;48.156;11.530;2023-12-20T08:56:00;0.60;;;0.50;;
20557;SDS011;10437;48.156;11.530;2023-12-20T08:58:29;0.63;;;0.43;;
20557;SDS011;10437;48.156;11.530;2023-12-20T09:00:56;1.30;;;0.67;;
20557;SDS011;10437;48.156;11.530;2023-12-20T09:03:23;0.50;;;0.40;;
20557;SDS011;10437;48.156;11.530;2023-12-20T09:05:50;0.90;;;0.67;;
20557;SDS011;10437;48.156;11.530;2023-12-20T09:08:18;1.50;;;0.70;;
20557;SDS011;10437;48.156;11.530;2023-12-20T09:10:45;1.67;;;0.63;;
20557;SDS011;10437;48.156;11.530;2023-12-20T09:13:12;1.23;;;0.60;;
20557;SDS011;10437;48.156;11.530;2023-12-20T09:15:41;1.00;;;0.60;;
20557;SDS011;10437;48.156;11.530;2023-12-20T09:18:08;0.80;;;0.50;;
20557;SDS011;10437;48.156;11.530;2023-12-20T09:20:35;2.30;;;0.73;;
20557;SDS011;10437;48.156;11.530;2023-12-20T09:23:02;0.87;;;0.60;;
20557;SDS011;10437;48.156;11.530;2023-12-20T09:25:29;0.60;;;0.50;;
20557;SDS011;10437;48.156;11.530;2023-12-20T09:27:56;2.30;;;0.60;;
20557;SDS011;10437;48.156;11.530;2023-12-20T09:30:24;1.37;;;0.60;;
20557;SDS011;10437;48.156;11.530;2023-12-20T09:32:52;1.60;;;0.70;;
20557;SDS011;10437;48.156;11.530;2023-12-20T09:35:19;1.30;;;0.63;;
20557;SDS011;10437;48.156;11.530;2023-12-20T09:37:46;0.70;;;0.60;;
20557;SDS011;10437;48.156;11.530;2023-12-20T09:40:14;1.10;;;0.60;;
20557;SDS011;10437;48.156;11.530;2023-12-20T09:42:47;3.23;;;0.73;;
20557;SDS011;10437;48.156;11.530;2023-12-20T09:45:17;0.70;;;0.53;;
20557;SDS011;10437;48.156;11.530;2023-12-20T09:47:48;1.03;;;0.60;;
20557;SDS011;10437;48.156;11.530;2023-12-20T09:50:17;1.63;;;0.63;;
20557;SDS011;10437;48.156;11.530;2023-12-20T09:52:46;1.20;;;0.70;;
20557;SDS011;10437;48.156;11.530;2023-12-20T09:55:16;2.50;;;0.73;;
20557;SDS011;10437;48.156;11.530;2023-12-20T09:57:43;1.47;;;0.80;;
20557;SDS011;10437;48.156;11.530;2023-12-20T10:00:11;1.30;;;0.83;;
20557;SDS011;10437;48.156;11.530;2023-12-20T10:02:40;1.20;;;0.67;;
20557;SDS011;10437;48.156;11.530;2023-12-20T10:05:15;1.00;;;0.60;;
20557;SDS011;10437;48.156;11.530;2023-12-20T10:07:45;0.93;;;0.60;;
20557;SDS011;10437;48.156;11.530;2023-12-20T10:10:13;2.33;;;0.90;;
20557;SDS011;10437;48.156;11.530;2023-12-20T10:12:40;1.47;;;0.73;;
20557;SDS011;10437;48.156;11.530;2023-12-20T10:15:27;1.53;;;0.87;;
20557;SDS011;10437;48.156;11.530;2023-12-20T10:17:55;1.90;;;0.87;;
20557;SDS011;10437;48.156;11.530;2023-12-20T10:20:24;1.07;;;0.80;;
20557;SDS011;10437;48.156;11.530;2023-12-20T10:22:53;1.23;;;0.80;;
20557;SDS011;10437;48.156;11.530;2023-12-20T10:25:21;1.63;;;1.00;;
20557;SDS011;10437;48.156;11.530;2023-12-20T10:27:49;3.53;;;0.67;;
20557;SDS011;10437;48.156;11.530;2023-12-20T10:30:16;1.50;;;0.93;;
20557;SDS011;10437;48.156;11.530;2023-12-20T10:32:43;1.87;;;0.80;;
20557;SDS011;10437;48.156;11.530;2023-12-20T10:35:11;1.30;;;0.80;;
20557;SDS011;10437;48.156;11.530;2023-12-20T10:37:39;2.47;;;0.83;;
20557;SDS011;10437;48.156;11.530;2023-12-20T10:40:07;1.47;;;0.53;;
20557;SDS011;10437;48.156;11.530;2023-12-20T10:42:35;2.63;;;1.20;;
20557;SDS011;10437;48.156;11.530;2023-12-20T10:45:04;2.70;;;0.90;;
20557;SDS011;10437;48.156;11.530;2023-12-20T10:47:32;1.50;;;0.70;;
20557;SDS011;10437;48.156;11.530;2023-12-20T10:50:00;1.27;;;0.80;;
20557;SDS011;10437;48.156;11.530;2023-12-20T10:52:31;1.23;;;0.80;;
20557;SDS011;10437;48.156;11.530;2023-12-20T10:55:02;1.93;;;0.70;;
20557;SDS011;10437;48.156;11.530;2023-12-20T10:57:29;0.80;;;0.60;;
20557;SDS011;10437;48.156;11.530;2023-12-20T10:59:56;3.27;;;0.77;;
20557;SDS011;10437;48.156;11.530;2023-12-20T11:02:29;1.07;;;0.70;;
20557;SDS011;10437;48.156;11.530;2023-12-20T11:04:57;1.43;;;0.90;;
20557;SDS011;10437;48.156;11.530;2023-12-20T11:07:33;1.57;;;0.80;;
20557;SDS011;10437;48.156;11.530;2023-12-20T11:10:09;1.10;;;0.80;;
20557;SDS011;10437;48.156;11.530;2023-12-20T11:12:44;1.00;;;0.90;;
20557;SDS011;10437;48.156;11.530;2023-12-20T11:15:16;1.10;;;0.77;;
20557;SDS011;10437;48.156;11.530;2023-12-20T11:17:44;0.83;;;0.70;;
20557;SDS011;10437;48.156;11.530;2023-12-20T11:20:12;1.83;;;1.00;;
20557;SDS011;10437;48.156;11.530;2023-12-20T11:22:39;1.93;;;0.90;;
20557;SDS011;10437;48.156;11.530;2023-12-20T11:25:20;3.67;;;0.97;;
20557;SDS011;10437;48.156;11.530;2023-12-20T11:30:42;1.67;;;1.03;;
20557;SDS011;10437;48.156;11.530;2023-12-20T11:33:13;2.87;;;0.80;;
20557;SDS011;10437;48.156;11.530;2023-12-20T11:35:40;2.60;;;1.10;;
20557;SDS011;10437;48.156;11.530;2023-12-20T11:38:08;2.03;;;1.03;;
20557;SDS011;10437;48.156;11.530;2023-12-20T11:40:37;4.00;;;1.10;;
20557;SDS011;10437;48.156;11.530;2023-12-20T11:43:04;2.13;;;1.30;;
20557;SDS011;10437;48.156;11.530;2023-12-20T11:45:31;2.17;;;1.60;;
20557;SDS011;10437;48.156;11.530;2023-12-20T11:48:00;2.33;;;1.30;;
20557;SDS011;10437;48.156;11.530;2023-12-20T11:50:28;1.63;;;1.10;;
20557;SDS011;10437;48.156;11.530;2023-12-20T11:52:56;1.83;;;1.27;;
20557;SDS011;10437;48.156;11.530;2023-12-20T11:55:23;2.23;;;1.40;;
20557;SDS011;10437;48.156;11.530;2023-12-20T11:57:52;2.00;;;1.17;;
20557;SDS011;10437;48.156;11.530;2023-12-20T12:00:19;2.23;;;1.27;;
20557;SDS011;10437;48.156;11.530;2023-12-20T12:02:56;2.83;;;1.27;;
20557;SDS011;10437;48.156;11.530;2023-12-20T12:05:24;1.87;;;1.17;;
20557;SDS011;10437;48.156;11.530;2023-12-20T12:07:52;1.63;;;1.07;;
20557;SDS011;10437;48.156;11.530;2023-12-20T12:10:19;2.63;;;0.90;;
20557;SDS011;10437;48.156;11.530;2023-12-20T12:12:47;1.10;;;1.00;;
20557;SDS011;10437;48.156;11.530;2023-12-20T12:15:15;1.30;;;0.90;;
20557;SDS011;10437;48.156;11.530;2023-12-20T12:17:42;1.40;;;0.90;;
20557;SDS011;10437;48.156;11.530;2023-12-20T12:20:10;2.00;;;0.97;;
20557;SDS011;10437;48.156;11.530;2023-12-20T12:22:37;1.73;;;0.83;;
20557;SDS011;10437;48.156;11.530;2023-12-20T12:25:11;1.67;;;0.93;;
20557;SDS011;10437;48.156;11.530;2023-12-20T12:27:42;1.63;;;0.97;;
20557;SDS011;10437;48.156;11.530;2023-12-20T12:30:09;4.70;;;1.03;;
20557;SDS011;10437;48.156;11.530;2023-12-20T12:32:39;1.27;;;1.00;;
20557;SDS011;10437;48.156;11.530;2023-12-20T12:35:07;3.10;;;1.20;;
20557;SDS011;10437;48.156;11.530;2023-12-20T12:37:35;1.60;;;1.00;;
20557;SDS011;10437;48.156;11.530;2023-12-20T12:40:04;1.50;;;0.80;;
20557;SDS011;10437;48.156;11.530;2023-12-20T12:42:32;1.33;;;0.90;;
20557;SDS011;10437;48.156;11.530;2023-12-20T12:44:59;1.67;;;0.90;;
20557;SDS011;10437;48.156;11.530;2023-12-20T12:47:26;1.67;;;1.00;;
20557;SDS011;10437;48.156;11.530;2023-12-20T12:49:55;1.20;;;0.80;;
20557;SDS011;10437;48.156;11.530;2023-12-20T12:52:22;1.20;;;0.83;;
20557;SDS011;10437;48.156;11.530;2023-12-20T12:54:49;1.33;;;0.97;;
20557;SDS011;10437;48.156;11.530;2023-12-20T12:57:17;1.40;;;1.00;;
20557;SDS011;10437;48.156;11.530;2023-12-20T12:59:44;2.43;;;1.20;;
20557;SDS011;10437;48.156;11.530;2023-12-20T13:02:12;3.57;;;1.30;;
20557;SDS011;10437;48.156;11.530;2023-12-20T13:04:39;2.00;;;1.23;;
20557;SDS011;10437;48.156;11.530;2023-12-20T13:07:08;2.30;;;1.50;;
20557;SDS011;10437;48.156;11.530;2023-12-20T13:09:36;1.97;;;1.20;;
20557;SDS011;10437;48.156;11.530;2023-12-20T13:12:04;1.40;;;1.10;;
20557;SDS011;10437;48.156;11.530;2023-12-20T13:14:31;2.10;;;1.27;;
20557;SDS011;10437;48.156;11.530;2023-12-20T13:16:59;2.27;;;1.17;;
20557;SDS011;10437;48.156;11.530;2023-12-20T13:19:26;1.63;;;1.17;;
20557;SDS011;10437;48.156;11.530;2023-12-20T13:21:54;2.67;;;1.13;;
20557;SDS011;10437;48.156;11.530;2023-12-20T13:24:22;1.83;;;1.20;;
20557;SDS011;10437;48.156;11.530;2023-12-20T13:26:49;2.47;;;1.00;;
20557;SDS011;10437;48.156;11.530;2023-12-20T13:29:16;3.37;;;1.00;;
20557;SDS011;10437;48.156;11.530;2023-12-20T13:31:44;1.50;;;0.97;;
20557;SDS011;10437;48.156;11.530;2023-12-20T13:34:11;3.50;;;1.23;;
20557;SDS011;10437;48.156;11.530;2023-12-20T13:36:38;3.90;;;1.17;;
20557;SDS011;10437;48.156;11.530;2023-12-20T13:39:06;3.00;;;1.23;;
20557;SDS011;10437;48.156;11.530;2023-12-20T13:41:35;2.97;;;1.27;;
20557;SDS011;10437;48.156;11.530;2023-12-20T13:44:02;2.90;;;1.13;;
20557;SDS011;10437;48.156;11.530;2023-12-20T13:46:29;2.20;;;1.40;;
20557;SDS011;10437;48.156;11.530;2023-12-20T13:48:56;3.60;;;1.20;;
20557;SDS011;10437;48.156;11.530;2023-12-20T13:51:24;4.23;;;1.20;;
20557;SDS011;10437;48.156;11.530;2023-12-20T13:53:51;2.43;;;1.63;;
20557;SDS011;10437;48.156;11.530;2023-12-20T13:56:18;2.53;;;1.10;;
20557;SDS011;10437;48.156;11.530;2023-12-20T13:58:48;2.43;;;1.53;;
20557;SDS011;10437;48.156;11.530;2023-12-20T14:01:15;2.57;;;1.20;;
20557;SDS011;10437;48.156;11.530;2023-12-20T14:03:43;2.90;;;1.60;;
20557;SDS011;10437;48.156;11.530;2023-12-20T14:06:10;3.37;;;1.37;;
20557;SDS011;10437;48.156;11.530;2023-12-20T14:08:38;3.13;;;1.50;;
20557;SDS011;10437;48.156;11.530;2023-12-20T14:11:06;2.83;;;1.30;;
20557;SDS011;10437;48.156;11.530;2023-12-20T14:13:34;5.13;;;1.57;;
20557;SDS011;10437;48.156;11.530;2023-12-20T14:16:02;5.10;;;1.30;;
20557;SDS011;10437;48.156;11.530;2023-12-20T14:18:29;6.47;;;1.60;;
20557;SDS011;10437;48.156;11.530;2023-12-20T14:20:57;2.00;;;1.27;;
20557;SDS011;10437;48.156;11.530;2023-12-20T14:23:24;3.73;;;1.47;;
20557;SDS011;10437;48.156;11.530;2023-12-20T14:25:51;2.43;;;1.37;;
20557;SDS011;10437;48.156;11.530;2023-12-20T14:28:19;6.20;;;1.47;;
20557;SDS011;10437;48.156;11.530;2023-12-20T14:30:46;4.10;;;1.50;;
20557;SDS011;10437;48.156;11.530;2023-12-20T14:33:16;5.47;;;1.40;;
20557;SDS011;10437;48.156;11.530;2023-12-20T14:35:45;4.07;;;1.43;;
20557;SDS011;10437;48.156;11.530;2023-12-20T14:38:12;3.53;;;1.23;;
20557;SDS011;10437;48.156;11.530;2023-12-20T14:40:40;4.03;;;1.20;;